Darstellungsparameter: Aktuell verwendete Einstellungen:
Skalierung der Graphiken ... ?
xyx+y,   Skalierungsfaktor:      Skalierung: Modus: x, Faktor: 1
Darstellungszeitraum ... ?
Vom - - bis: - -   Zeitraum: 22.10.2010 - 22.10.2010
Min/Max/Avg-Anzeige ... ?
Zeige MMA aktuell
Zeige MMA Monat
Zeige MMA alles
Zeige --A aktuell
Zeige --A Monat
Zeige --A alles
Keine MMA-Anzeige
MMA:
Average (ber die Originaldaten)
MMA-Basis: 22.10.2010 - 22.10.2010
Quicknavigation für Darstellung... ?
Tage:      1T, 2T, 3T, 5T -1T -2T -3T -5T +1T +2T +3T +5T
Wochen: 1W, 2W, 3W -1W -2W -3W +1W +2W +3W
Monate: 1M, 3M, 6M -1M -3M -6M +1M +3M +6M
Jahre:    1J, 3J, 5J, 10J -1J -3J -5J -10J +1J +3J +5J +10J
Nutze für die Darstellung ... ?
Originaldaten oder Mittelwerte auf ...
Stundenbasis Tagesbasis Wochenbasis
Monatsbasis Jahresbasis      Datenbasis: Original-Daten
Darstellen als:
Statistik (Auto) Statistik J:M      Darstellung:
Zur Graphik,    zurück zur Übersicht aller Sensoren.
 
Tabellarische Datenbersicht: ?
 
Sensor: Nr:Datum:Temp:Abs-Feuchte:Windchill:Wind:
Aussen-T/F 1 22-10-2010 00:10:04 2.2 C 4 g/m*3 2.2 C 0 km/h
2 22-10-2010 00:22:04 2.2 C 4.06 g/m*3 2.2 C 0 km/h
3 22-10-2010 00:34:05 2.8 C 4.11 g/m*3 2.8 C 0 km/h
4 22-10-2010 00:46:05 2.5 C 4.08 g/m*3 2.5 C 0 km/h
5 22-10-2010 00:58:05 2.2 C 4.06 g/m*3 2.2 C 0 km/h
6 22-10-2010 01:10:05 1.6 C 4 g/m*3 1.6 C 0 km/h
7 22-10-2010 01:22:05 1.3 C 4.03 g/m*3 1.3 C 0 km/h
8 22-10-2010 01:34:05 1.8 C 4.22 g/m*3 1.8 C 0 km/h
9 22-10-2010 01:46:05 2 C 4.17 g/m*3 2 C 0 km/h
10 22-10-2010 01:58:05 2 C 4.11 g/m*3 2 C 0 km/h
11 22-10-2010 02:10:05 2.1 C 4.08 g/m*3 2.1 C 0 km/h
12 22-10-2010 02:22:05 2.1 C 4.08 g/m*3 2.1 C 0 km/h
13 22-10-2010 02:34:05 2 C 4.06 g/m*3 2 C 0 km/h
14 22-10-2010 02:46:05 2.2 C 4.11 g/m*3 2.2 C 0 km/h
15 22-10-2010 02:58:05 2.2 C 4.11 g/m*3 2.2 C 0 km/h
16 22-10-2010 03:10:05 2.1 C 4.08 g/m*3 2.1 C 0 km/h
17 22-10-2010 03:22:05 2.3 C 4.08 g/m*3 2.3 C 0 km/h
18 22-10-2010 03:34:05 2.1 C 4.03 g/m*3 2.1 C 0 km/h
19 22-10-2010 03:46:05 2.3 C 4.14 g/m*3 2.3 C 0 km/h
20 22-10-2010 03:58:05 2 C 4.06 g/m*3 2 C 0 km/h
21 22-10-2010 04:10:05 1.7 C 4.03 g/m*3 1.7 C 0 km/h
22 22-10-2010 04:22:05 1.4 C 4.05 g/m*3 1.4 C 0 km/h
23 22-10-2010 04:34:06 1.4 C 4.11 g/m*3 1.4 C 0 km/h
24 22-10-2010 04:46:06 1.5 C 4.14 g/m*3 1.5 C 0 km/h
25 22-10-2010 04:58:06 1.4 C 4.11 g/m*3 1.4 C 0 km/h
Sensor: Nr:Datum:Temp:Abs-Feuchte:Windchill:Wind:
Aussen-T/F 26 22-10-2010 05:10:06 1.2 C 4.1 g/m*3 1.2 C 0 km/h
27 22-10-2010 05:22:06 1.3 C 4.13 g/m*3 1.3 C 0 km/h
28 22-10-2010 05:34:06 1.6 C 4.16 g/m*3 1.6 C 0 km/h
29 22-10-2010 05:46:06 1.4 C 4.05 g/m*3 1.4 C 0 km/h
30 22-10-2010 05:58:06 1.4 C 4.11 g/m*3 1.4 C 0 km/h
31 22-10-2010 06:10:06 1.5 C 4.08 g/m*3 1.5 C 0 km/h
32 22-10-2010 06:22:06 1.6 C 4.11 g/m*3 1.6 C 0 km/h
33 22-10-2010 06:34:06 1.8 C 4.06 g/m*3 1.8 C 0 km/h
34 22-10-2010 06:46:06 1.7 C 4.03 g/m*3 1.7 C 0 km/h
35 22-10-2010 06:58:06 1.7 C 4.03 g/m*3 1.7 C 0 km/h
36 22-10-2010 07:10:02 1.4 C 4 g/m*3 1.4 C 0 km/h
37 22-10-2010 07:22:03 1 C 3.89 g/m*3 1 C 0 km/h
38 22-10-2010 07:34:03 0.7 C 3.92 g/m*3 0.7 C 0 km/h
39 22-10-2010 07:46:02 0.6 C 3.99 g/m*3 0.6 C 0 km/h
40 22-10-2010 07:58:02 1 C 4.1 g/m*3 1 C 0 km/h
41 22-10-2010 08:10:01 1.5 C 4.14 g/m*3 1.5 C 0 km/h
42 22-10-2010 08:22:02 1.3 C 4.03 g/m*3 1.3 C 0 km/h
43 22-10-2010 08:34:02 1.1 C 3.97 g/m*3 1.1 C 0 km/h
44 22-10-2010 08:46:02 1.1 C 3.97 g/m*3 1.1 C 0 km/h
45 22-10-2010 08:58:02 1.4 C 4.11 g/m*3 1.4 C 0 km/h
46 22-10-2010 09:10:03 1.3 C 4.13 g/m*3 1.3 C 0 km/h
47 22-10-2010 09:22:02 1.4 C 4.16 g/m*3 1.4 C 0 km/h
48 22-10-2010 09:34:02 1.9 C 4.3 g/m*3 1.9 C 0 km/h
49 22-10-2010 09:46:01 2.5 C 4.43 g/m*3 2.5 C 0 km/h
50 22-10-2010 09:58:01 3.2 C 4.46 g/m*3 3.2 C 0 km/h
Sensor: Nr:Datum:Temp:Abs-Feuchte:Windchill:Wind:
Aussen-T/F 51 22-10-2010 10:10:02 3.8 C 4.58 g/m*3 3.8 C 0 km/h
52 22-10-2010 10:22:01 4.1 C 4.29 g/m*3 4.1 C 0 km/h
53 22-10-2010 10:34:01 4.3 C 4.15 g/m*3 4.3 C 0 km/h
54 22-10-2010 10:46:01 4.6 C 4.1 g/m*3 4.6 C 0 km/h
55 22-10-2010 10:58:01 4.7 C 4 g/m*3 4.7 C 0 km/h
56 22-10-2010 11:10:02 4.8 C 4.02 g/m*3 4.8 C 0 km/h
57 22-10-2010 11:22:01 5.1 C 3.9 g/m*3 5.1 C 0 km/h
58 22-10-2010 11:34:01 5.4 C 3.91 g/m*3 5.4 C 0 km/h
59 22-10-2010 11:46:01 5.7 C 3.91 g/m*3 5.7 C 0 km/h
60 22-10-2010 11:58:01 5.8 C 3.94 g/m*3 5.8 C 0 km/h
61 22-10-2010 12:10:02 6.1 C 3.87 g/m*3 6.1 C 0 km/h
62 22-10-2010 12:22:02 6.5 C 3.9 g/m*3 6.5 C 0 km/h
63 22-10-2010 12:34:01 6.5 C 3.82 g/m*3 6.5 C 0 km/h
64 22-10-2010 12:46:02 6.8 C 3.98 g/m*3 6.8 C 0 km/h
65 22-10-2010 12:58:02 6.9 C 3.93 g/m*3 6.9 C 0 km/h
66 22-10-2010 13:10:01 7 C 3.87 g/m*3 7 C 0 km/h
67 22-10-2010 13:22:02 7.1 C 3.82 g/m*3 7.1 C 0 km/h
68 22-10-2010 13:34:01 7.2 C 3.92 g/m*3 7.2 C 0 km/h
69 22-10-2010 13:46:02 7.3 C 3.87 g/m*3 7.3 C 0 km/h
70 22-10-2010 13:58:02 7.3 C 3.95 g/m*3 7.3 C 0 km/h
71 22-10-2010 14:10:02 7.3 C 3.87 g/m*3 7.3 C 0 km/h
72 22-10-2010 14:22:02 7.5 C 3.92 g/m*3 7.5 C 0 km/h
73 22-10-2010 14:34:03 7.5 C 3.84 g/m*3 7.5 C 0 km/h
74 22-10-2010 14:46:02 7.3 C 3.87 g/m*3 7.3 C 0 km/h
75 22-10-2010 14:58:03 7.2 C 3.85 g/m*3 7.2 C 0 km/h
Sensor: Nr:Datum:Temp:Abs-Feuchte:Windchill:Wind:
Aussen-T/F 76 22-10-2010 15:10:01 7.2 C 3.69 g/m*3 7.2 C 0 km/h
77 22-10-2010 15:22:02 7.3 C 3.79 g/m*3 7.3 C 0 km/h
78 22-10-2010 15:34:02 7.2 C 3.77 g/m*3 7.2 C 0 km/h
79 22-10-2010 15:46:02 7.1 C 3.82 g/m*3 7.1 C 0 km/h
80 22-10-2010 15:58:02 7.3 C 4.03 g/m*3 7.3 C 0 km/h
81 22-10-2010 16:10:03 7.4 C 4.06 g/m*3 7.4 C 0 km/h
82 22-10-2010 16:22:02 7.5 C 4.08 g/m*3 7.5 C 0 km/h
83 22-10-2010 16:34:02 7.4 C 4.29 g/m*3 7.4 C 0 km/h
84 22-10-2010 16:46:01 7.4 C 4.53 g/m*3 7.4 C 0 km/h
85 22-10-2010 16:58:01 7.4 C 4.69 g/m*3 7.4 C 0 km/h
86 22-10-2010 17:10:02 7.5 C 4.4 g/m*3 7.5 C 0 km/h
87 22-10-2010 17:22:01 7.7 C 4.14 g/m*3 7.7 C 0 km/h
88 22-10-2010 17:34:01 7.6 C 4.19 g/m*3 7.6 C 0 km/h
89 22-10-2010 17:46:01 6.9 C 4.31 g/m*3 6.9 C 0 km/h
90 22-10-2010 17:58:01 6.4 C 4.32 g/m*3 6.4 C 0 km/h
91 22-10-2010 18:10:02 6.4 C 4.17 g/m*3 6.4 C 0 km/h
92 22-10-2010 18:22:01 6.2 C 4.19 g/m*3 6.2 C 0 km/h
93 22-10-2010 18:34:01 6 C 4.21 g/m*3 6 C 0 km/h
94 22-10-2010 18:46:01 6.1 C 4.09 g/m*3 6.1 C 0 km/h
95 22-10-2010 18:58:01 6.2 C 3.82 g/m*3 6.2 C 0 km/h
96 22-10-2010 19:10:01 6.2 C 3.68 g/m*3 6.2 C 0 km/h
97 22-10-2010 19:22:02 6.2 C 3.68 g/m*3 6.2 C 0 km/h
98 22-10-2010 19:34:01 6.2 C 3.68 g/m*3 6.2 C 0 km/h
99 22-10-2010 19:46:03 6.2 C 3.68 g/m*3 6.2 C 0 km/h
100 22-10-2010 19:58:03 6.2 C 3.75 g/m*3 6.2 C 0 km/h
Sensor: Nr:Datum:Temp:Abs-Feuchte:Windchill:Wind:
Aussen-T/F 101 22-10-2010 20:10:02 6.2 C 3.75 g/m*3 6.2 C 0 km/h
102 22-10-2010 20:22:02 6 C 3.77 g/m*3 6 C 0 km/h
103 22-10-2010 20:34:02 6 C 3.77 g/m*3 6 C 0 km/h
104 22-10-2010 20:46:02 6 C 3.85 g/m*3 6 C 0 km/h
105 22-10-2010 20:58:02 5.9 C 3.97 g/m*3 5.9 C 0 km/h
106 22-10-2010 21:10:02 6 C 3.85 g/m*3 6 C 0 km/h
107 22-10-2010 21:22:02 5.9 C 3.97 g/m*3 5.9 C 0 km/h
108 22-10-2010 21:34:02 5.7 C 3.91 g/m*3 5.7 C 0 km/h
109 22-10-2010 21:46:01 5.7 C 3.91 g/m*3 5.7 C 0 km/h
110 22-10-2010 21:58:01 5.3 C 3.88 g/m*3 5.3 C 0 km/h
111 22-10-2010 22:10:02 4.9 C 3.92 g/m*3 4.9 C 0 km/h
112 22-10-2010 22:22:01 4.3 C 3.96 g/m*3 4.3 C 0 km/h
113 22-10-2010 22:35:03 4.1 C 4.1 g/m*3 4.1 C 0 km/h
114 22-10-2010 22:47:03 3.8 C 4.2 g/m*3 3.8 C 0 km/h
115 22-10-2010 22:59:03 3.6 C 4.27 g/m*3 3.6 C 0 km/h
116 22-10-2010 23:11:03 3.4 C 4.28 g/m*3 3.4 C 0 km/h
117 22-10-2010 23:23:03 3.1 C 4.31 g/m*3 3.1 C 0 km/h
118 22-10-2010 23:35:03 2.7 C 4.31 g/m*3 2.7 C 0 km/h
119 22-10-2010 23:47:03 2.4 C 4.28 g/m*3 2.4 C 0 km/h
120 22-10-2010 23:59:03 2.2 C 4.34 g/m*3 2.2 C 0 km/h

Legende:
   Min
   Max


Maximal/Minimal-Werte vom 22.10.2010 - 22.10.2010

Sensor Min Max Avg
Temp
(Aussen-T/F)
0.6 °C
22-10-2010  07:46:02
7.7 °C
22-10-2010  17:22:01
4.2 °C
Abs-Feuchte
(Aussen-T/F)
3.68 g/m*3
22-10-2010  19:10:01
4.69 g/m*3
22-10-2010  16:58:01
4.01 g/m*3
Windchill
(Aussen-T/F)
0.6 C
22-10-2010  07:46:02
7.7 C
22-10-2010  17:22:01
4.17 C

Die Daten stammen von einer Davis Vantage Pro 2 Wetter-Station und werden unter Linux mit der Software wview2wettercgi und aufbereitet. Alle Angaben erfolgen ohne Gewähr für ihre Vollständigkeit oder Richtigkeit.
Kontakt: Rainer Krienke krienke@uni-koblenz.de . Meine Webseiten an der Uni Koblenz oder privat.
Version: $Revision: 0.78 $